Summersville, WV

5:49 PM EDT on September 02, 2014 (GMT -0400)
KWVMTNEB2 | Change Station
CLOSE
Current Station
Personal Weather Station
Location: Mt Nebo, WV
Elevation: 2195 ft
Nearby Weather Stations
Active Advisory: Flash Flood Watch Active Notice: Public Information Statement

Elev 2195 ft 38.14 °N, 80.85 °W | Updated 6 seconds ago

Mostly Cloudy
Mostly Cloudy
66.3 °F
Feels Like 66.3 °F
N
0.0
Wind Variable Wind from North
Gusts 2.0 mph

Today
High -- | Low -- °F
--% Chance of Precip.
Yesterday
High -- | Low -- °F
Precip. -- in
6:53 AM 7:51 PM
First Quarter, 55% visible
Pressure 30.07 in
Visibility 4.0 miles
Clouds Scattered Clouds 1200 ft
Mostly Cloudy 3600 ft
Overcast 12000 ft
Dew Point 66 °F
Humidity 100%
Rainfall 1.09 in
Snow Depth Not available.
UV 1 out of 12
Pollen 9.20 out of 12
Air Quality Not available.
Flu Activity Not available.
SPECI KBKW 022137Z AUTO 16004KT 4SM +RA BR SCT012 BKN036 OVC120 19/17 A3007 RMK AO2 RAB12 P0034 T01940172 TSNO

More Conditions Fewer Conditions

Pressure 30.07 in
Visibility 4.0 miles
Clouds Scattered Clouds 1200 ft
Mostly Cloudy 3600 ft
Overcast 12000 ft
Dew Point 66 °F
Humidity 100%
Rainfall 1.09 in
Snow Depth Not available.
UV 1 out of 12
Pollen 9.20 out of 12
Air Quality Not available.
Flu Activity Not available.
SPECI KBKW 022137Z AUTO 16004KT 4SM +RA BR SCT012 BKN036 OVC120 19/17 A3007 RMK AO2 RAB12 P0034 T01940172 TSNO

More Conditions Fewer Conditions

10-Day Weather Forecast

Almanac

Astronomy

Sep. 02, 2014 Rise Set
Actual Time 6:53 AM EDT 7:51 PM EDT
Civil Twilight 6:26 AM EDT 8:18 PM EDT
Nautical Twilight 5:54 AM EDT 8:50 PM EDT
Astronomical Twilight 5:21 AM EDT 9:23 PM EDT
Moon 2:30 PM EDT No Moon Set
Length of Visible Light 13h 51m
Length of Day
12h 57m
Tomorrow will be 2m 23s shorter.
First Quarter, 55% of the Moon is Illuminated
Today
First Quarter
Sep 8
Full
Sep 15
Last Quarter
Sep 24
New
Oct 1
First Quarter

Today's Extremes

State Highs State Lows

Community

WunderPhotos

Upload Photos

1,749,782 photos uploaded!

Nearby

Snow Depth

Station Depth Elevation
No new snow has been reported.

Earthquake Activity

City Distance Mag. Time & Date
No recent earthquake activity has been reported nearby.
Minimum magnitude displayed is 2.5.

Coastal Water Temperatures

Place Temperature
No Stations Reporting

Nearby Weather Stations